Time;durP1;ratioP1;P1;durP2;ratioP2;P2;SDS_P1;SDS_P2;PMS_P1;PMS_P2;Temp;Humidity;BMP_temperature;BMP_pressure;BME280_temperature;BME280_humidity;BME280_pressure;Samples;Min_cycle;Max_cycle;Signal;HPM_P1;HPM_P2
2021/09/13 00:04:53;;;;;;;15.05;12.05;;;;;;;;;;10282661;28;20037;-64
2021/09/13 00:09:52;;;;;;;17.38;10.68;;;;;;;;;;10282032;28;20084;-64
2021/09/13 00:14:52;;;;;;;16.05;10.02;;;;;;;;;;10281959;28;20045;-64
2021/09/13 00:19:52;;;;;;;18.80;11.02;;;;;;;;;;10281875;28;20076;-64
2021/09/13 00:24:50;;;;;;;13.70;11.45;;;;;;;;;;10281565;28;20069;-64
2021/09/13 00:29:49;;;;;;;15.57;11.50;;;;;;;;;;10281516;28;20103;-64
2021/09/13 00:34:50;;;;;;;17.10;10.13;;;;;;;;;;10281292;28;20040;-64
2021/09/13 00:39:49;;;;;;;20.70;11.52;;;;;;;;;;10280691;28;20494;-64
2021/09/13 00:44:47;;;;;;;15.18;11.43;;;;;;;;;;10280894;28;20053;-64
2021/09/13 00:49:46;;;;;;;15.45;10.30;;;;;;;;;;10280830;28;20037;-64
2021/09/13 00:54:47;;;;;;;15.60;10.77;;;;;;;;;;10279392;28;20064;-64
2021/09/13 00:59:45;;;;;;;17.25;11.25;;;;;;;;;;10277933;28;20091;-64
2021/09/13 01:04:44;;;;;;;16.90;11.98;;;;;;;;;;10280195;28;20076;-64
2021/09/13 01:09:42;;;;;;;17.23;10.45;;;;;;;;;;10279675;28;20068;-65
2021/09/13 01:14:42;;;;;;;17.60;10.60;;;;;;;;;;10277772;28;20431;-64
2021/09/13 01:19:41;;;;;;;11.18;9.23;;;;;;;;;;10278121;28;20092;-64
2021/09/13 01:24:41;;;;;;;13.77;9.77;;;;;;;;;;10277246;28;20076;-64
2021/09/13 01:29:40;;;;;;;15.90;10.85;;;;;;;;;;10276945;28;20044;-65
2021/09/13 01:34:40;;;;;;;11.07;9.15;;;;;;;;;;10277537;28;20041;-64
2021/09/13 01:39:39;;;;;;;23.40;10.23;;;;;;;;;;10276659;28;20052;-65
2021/09/13 01:44:43;;;;;;;17.23;9.55;;;;;;;;;;10276897;28;20052;-65
2021/09/13 01:49:41;;;;;;;16.73;11.02;;;;;;;;;;10278520;28;20045;-65
2021/09/13 01:54:39;;;;;;;23.33;10.68;;;;;;;;;;10276949;28;20076;-65
2021/09/13 01:59:43;;;;;;;18.98;10.65;;;;;;;;;;10276662;28;20045;-65
2021/09/13 02:04:43;;;;;;;12.90;9.00;;;;;;;;;;10276575;28;20049;-65
2021/09/13 02:09:44;;;;;;;13.90;10.27;;;;;;;;;;10275998;28;20056;-65
2021/09/13 02:14:49;;;;;;;16.27;12.00;;;;;;;;;;10276027;28;20049;-65
2021/09/13 02:19:48;;;;;;;17.80;12.00;;;;;;;;;;10275626;28;20064;-65
2021/09/13 02:24:47;;;;;;;19.13;10.10;;;;;;;;;;10314633;28;20490;-64
2021/09/13 02:29:45;;;;;;;16.38;11.70;;;;;;;;;;10276191;28;20041;-64
2021/09/13 02:34:47;;;;;;;19.88;11.60;;;;;;;;;;10275521;28;20060;-64
2021/09/13 02:39:46;;;;;;;14.75;11.43;;;;;;;;;;10276659;28;20079;-64
2021/09/13 02:44:44;;;;;;;21.83;11.52;;;;;;;;;;10276702;28;20044;-65
2021/09/13 02:49:43;;;;;;;17.67;11.73;;;;;;;;;;10299626;28;20052;-64
2021/09/13 02:54:43;;;;;;;13.43;10.07;;;;;;;;;;10284173;28;20053;-64
2021/09/13 02:59:42;;;;;;;14.48;10.95;;;;;;;;;;10274520;28;20080;-64
2021/09/13 03:04:40;;;;;;;13.23;10.80;;;;;;;;;;10274455;28;20580;-64
2021/09/13 03:09:40;;;;;;;16.73;11.70;;;;;;;;;;10274551;28;20433;-64
2021/09/13 03:14:40;;;;;;;17.83;12.50;;;;;;;;;;10274439;28;20045;-64
2021/09/13 03:19:41;;;;;;;23.45;12.32;;;;;;;;;;10274359;28;20053;-64
2021/09/13 03:24:40;;;;;;;20.92;11.77;;;;;;;;;;10274477;28;20052;-63
2021/09/13 03:29:38;;;;;;;14.10;10.30;;;;;;;;;;10274773;28;20063;-64
2021/09/13 03:34:38;;;;;;;22.10;13.75;;;;;;;;;;10275389;28;20060;-64
2021/09/13 03:39:37;;;;;;;15.73;10.15;;;;;;;;;;10281770;28;20049;-64
2021/09/13 03:44:36;;;;;;;17.60;9.98;;;;;;;;;;10281349;28;20411;-64
2021/09/13 03:49:55;;;;;;;20.35;11.43;;;;;;;;;;10283080;28;20045;-63
2021/09/13 03:54:54;;;;;;;20.67;12.00;;;;;;;;;;10280965;28;20426;-64
2021/09/13 03:59:52;;;;;;;21.35;11.70;;;;;;;;;;10281402;28;20077;-64
2021/09/13 04:04:52;;;;;;;15.27;11.40;;;;;;;;;;10280781;28;20037;-64
2021/09/13 04:15:34;;;;;;;20.27;12.82;;;;;;;;;;10280567;28;20507;-63
2021/09/13 04:20:35;;;;;;;19.15;12.73;;;;;;;;;;10281816;28;20083;-63
2021/09/13 04:25:57;;;;;;;24.25;13.48;;;;;;;;;;10279151;28;20056;-63
2021/09/13 04:31:17;;;;;;;22.17;13.23;;;;;;;;;;10279146;28;20060;-63
2021/09/13 04:36:41;;;;;;;27.60;17.40;;;;;;;;;;10278947;28;20124;-62
2021/09/13 04:42:00;;;;;;;37.67;27.33;;;;;;;;;;10286412;28;20084;-63
2021/09/13 04:47:17;;;;;;;29.85;24.05;;;;;;;;;;10285447;28;20053;-63
2021/09/13 04:52:33;;;;;;;15.38;10.80;;;;;;;;;;10283926;28;20053;-62
2021/09/13 04:57:35;;;;;;;26.10;21.58;;;;;;;;;;10275835;28;20052;-63
2021/09/13 05:02:33;;;;;;;13.50;9.45;;;;;;;;;;10271797;28;20088;-63
2021/09/13 05:07:32;;;;;;;16.73;9.77;;;;;;;;;;10271445;28;20470;-63
2021/09/13 05:12:35;;;;;;;16.05;9.10;;;;;;;;;;10273359;28;20088;-63
2021/09/13 05:17:34;;;;;;;12.88;9.30;;;;;;;;;;10276131;28;20612;-63
2021/09/13 05:22:32;;;;;;;19.35;8.60;;;;;;;;;;10277972;28;20406;-63
2021/09/13 05:27:31;;;;;;;14.18;9.57;;;;;;;;;;10277849;28;20045;-64
2021/09/13 05:32:30;;;;;;;18.25;8.98;;;;;;;;;;10277033;28;20060;-63
2021/09/13 05:37:29;;;;;;;10.23;9.02;;;;;;;;;;10277176;28;20044;-64
2021/09/13 05:42:28;;;;;;;51.28;41.00;;;;;;;;;;10276624;28;20053;-64
2021/09/13 05:47:26;;;;;;;20.02;10.27;;;;;;;;;;10276963;28;20430;-64
2021/09/13 05:52:26;;;;;;;11.63;9.25;;;;;;;;;;10275353;28;20086;-63
2021/09/13 05:57:25;;;;;;;15.88;10.32;;;;;;;;;;10274314;28;20060;-65
2021/09/13 06:02:23;;;;;;;17.25;12.25;;;;;;;;;;10303029;28;20049;-64
2021/09/13 06:07:45;;;;;;;23.58;18.98;;;;;;;;;;10276146;28;20053;-65
2021/09/13 06:12:47;;;;;;;26.63;22.43;;;;;;;;;;10275940;28;20044;-64
2021/09/13 06:17:46;;;;;;;12.35;10.15;;;;;;;;;;10275723;28;20053;-65
2021/09/13 06:22:48;;;;;;;15.50;10.18;;;;;;;;;;10276229;28;20549;-64
2021/09/13 06:27:50;;;;;;;25.92;17.90;;;;;;;;;;10298077;28;20060;-65
2021/09/13 06:32:49;;;;;;;32.00;15.60;;;;;;;;;;10276118;28;20056;-64
2021/09/13 06:37:50;;;;;;;30.20;14.68;;;;;;;;;;10275051;28;20049;-65
2021/09/13 06:42:49;;;;;;;41.17;15.25;;;;;;;;;;10275010;28;20085;-64
2021/09/13 06:47:53;;;;;;;36.42;14.65;;;;;;;;;;10275554;28;20220;-63
2021/09/13 06:52:55;;;;;;;30.17;13.52;;;;;;;;;;10274885;28;20461;-64
2021/09/13 06:57:53;;;;;;;36.10;11.98;;;;;;;;;;10274469;28;20045;-63
2021/09/13 07:02:52;;;;;;;21.05;10.80;;;;;;;;;;10275684;28;20459;-63
2021/09/13 07:07:50;;;;;;;23.70;12.05;;;;;;;;;;10275757;28;20053;-63
2021/09/13 07:12:52;;;;;;;25.33;12.27;;;;;;;;;;10284207;28;20056;-64
2021/09/13 07:17:52;;;;;;;23.02;11.32;;;;;;;;;;10283744;28;20404;-64
2021/09/13 07:22:52;;;;;;;23.40;11.60;;;;;;;;;;10283779;28;20079;-64
2021/09/13 07:27:52;;;;;;;22.77;12.35;;;;;;;;;;10283528;28;20045;-64
2021/09/13 07:32:54;;;;;;;20.70;13.38;;;;;;;;;;10283272;28;20064;-64
2021/09/13 07:37:52;;;;;;;16.13;10.82;;;;;;;;;;10283465;28;20048;-64
2021/09/13 07:42:52;;;;;;;22.98;11.57;;;;;;;;;;10282758;28;20494;-65
2021/09/13 07:47:51;;;;;;;21.17;11.50;;;;;;;;;;10282781;28;20045;-64
2021/09/13 07:52:50;;;;;;;24.67;12.85;;;;;;;;;;10281977;28;20088;-65
2021/09/13 07:57:48;;;;;;;31.65;11.18;;;;;;;;;;10282364;28;20072;-65
2021/09/13 08:02:57;;;;;;;29.50;12.32;;;;;;;;;;10282408;28;20555;-65
2021/09/13 08:07:55;;;;;;;21.80;11.25;;;;;;;;;;10282395;28;20045;-65
2021/09/13 08:12:53;;;;;;;24.17;10.68;;;;;;;;;;10281934;28;20033;-63
2021/09/13 08:17:52;;;;;;;20.80;10.90;;;;;;;;;;10281412;28;20037;-64
2021/09/13 08:22:55;;;;;;;19.25;10.50;;;;;;;;;;10281092;28;20087;-64
2021/09/13 08:27:54;;;;;;;21.45;10.05;;;;;;;;;;10281376;28;20053;-64
2021/09/13 08:32:52;;;;;;;17.48;9.68;;;;;;;;;;10281185;28;20041;-64
2021/09/13 08:37:51;;;;;;;18.85;10.15;;;;;;;;;;10280917;28;20049;-64
2021/09/13 08:42:51;;;;;;;20.42;11.68;;;;;;;;;;10280342;28;20085;-64
2021/09/13 08:47:57;;;;;;;19.35;12.82;;;;;;;;;;10280743;28;20073;-64
2021/09/13 08:52:56;;;;;;;21.98;10.68;;;;;;;;;;10279520;28;20083;-64
2021/09/13 08:57:58;;;;;;;26.20;9.98;;;;;;;;;;10280500;28;20045;-64
2021/09/13 09:02:56;;;;;;;22.40;10.10;;;;;;;;;;10279787;28;20068;-63
2021/09/13 09:07:56;;;;;;;26.23;10.38;;;;;;;;;;10280047;28;20053;-65
2021/09/13 09:13:00;;;;;;;24.42;9.23;;;;;;;;;;10279609;28;20079;-64
2021/09/13 09:17:59;;;;;;;24.30;10.70;;;;;;;;;;10278850;28;20533;-64
2021/09/13 09:23:01;;;;;;;17.30;9.98;;;;;;;;;;10279230;28;20073;-64
2021/09/13 09:28:02;;;;;;;21.52;9.50;;;;;;;;;;10279029;28;20494;-63
2021/09/13 09:33:09;;;;;;;25.98;9.90;;;;;;;;;;10277663;28;20045;-64
2021/09/13 09:38:07;;;;;;;18.58;8.40;;;;;;;;;;10304143;28;20049;-64
2021/09/13 09:43:08;;;;;;;20.48;9.15;;;;;;;;;;10292592;28;20045;-63
2021/09/13 09:48:07;;;;;;;17.33;8.52;;;;;;;;;;10278517;28;20082;-64
2021/09/13 09:53:15;;;;;;;15.77;8.05;;;;;;;;;;10278198;28;20060;-64
2021/09/13 09:58:14;;;;;;;10.48;7.75;;;;;;;;;;10278010;28;20052;-64
2021/09/13 10:03:27;;;;;;;14.63;8.02;;;;;;;;;;10280975;28;20088;-63
2021/09/13 10:08:27;;;;;;;14.32;8.55;;;;;;;;;;10300074;28;20041;-64
2021/09/13 10:13:26;;;;;;;18.40;7.68;;;;;;;;;;10277809;28;20044;-64
2021/09/13 10:18:25;;;;;;;12.82;8.35;;;;;;;;;;10277342;28;20041;-64
2021/09/13 10:23:23;;;;;;;15.20;8.18;;;;;;;;;;10276965;28;20076;-64
2021/09/13 10:28:21;;;;;;;12.82;6.45;;;;;;;;;;10276842;28;20053;-64
2021/09/13 10:33:21;;;;;;;12.50;7.15;;;;;;;;;;10276812;28;20079;-64
2021/09/13 10:38:21;;;;;;;16.90;7.45;;;;;;;;;;10276377;28;20041;-64
2021/09/13 10:43:21;;;;;;;12.02;6.97;;;;;;;;;;10276124;28;20092;-64
2021/09/13 10:48:21;;;;;;;13.45;7.65;;;;;;;;;;10276211;28;20053;-64
2021/09/13 10:53:29;;;;;;;13.23;8.02;;;;;;;;;;10276555;28;20159;-64
2021/09/13 10:58:40;;;;;;;13.88;9.35;;;;;;;;;;10275943;28;20504;-64
2021/09/13 11:03:48;;;;;;;12.75;7.57;;;;;;;;;;10275841;28;20491;-64
2021/09/13 11:08:47;;;;;;;15.43;8.63;;;;;;;;;;10275893;28;20517;-64
2021/09/13 11:13:46;;;;;;;13.73;6.78;;;;;;;;;;10275028;28;20052;-64
2021/09/13 11:18:47;;;;;;;10.85;6.70;;;;;;;;;;10275817;28;20053;-64
2021/09/13 11:23:46;;;;;;;12.52;7.47;;;;;;;;;;10275569;28;20096;-63
2021/09/13 11:28:55;;;;;;;17.65;6.55;;;;;;;;;;10275507;28;20053;-63
2021/09/13 11:33:56;;;;;;;12.75;6.97;;;;;;;;;;10275803;28;20053;-64
2021/09/13 11:38:55;;;;;;;10.48;6.65;;;;;;;;;;10275667;28;20044;-64
2021/09/13 11:43:58;;;;;;;10.07;6.85;;;;;;;;;;10275366;28;20076;-64
2021/09/13 11:49:18;;;;;;;10.45;7.03;;;;;;;;;;10274861;28;20529;-64
2021/09/13 11:54:16;;;;;;;11.70;7.03;;;;;;;;;;10275012;28;20060;-65
2021/09/13 11:59:19;;;;;;;14.65;6.80;;;;;;;;;;10281862;28;20438;-64
2021/09/13 12:04:22;;;;;;;11.15;6.07;;;;;;;;;;10282541;28;20076;-64
2021/09/13 12:09:21;;;;;;;16.67;7.70;;;;;;;;;;10282383;28;20082;-64
2021/09/13 12:14:19;;;;;;;8.43;6.80;;;;;;;;;;10281876;28;20048;-64
2021/09/13 12:19:22;;;;;;;11.13;7.38;;;;;;;;;;10282230;28;20049;-64
2021/09/13 12:24:23;;;;;;;13.35;6.45;;;;;;;;;;10280669;28;20463;-64
2021/09/13 12:29:21;;;;;;;18.85;8.10;;;;;;;;;;10281183;28;20056;-64
2021/09/13 12:34:20;;;;;;;14.38;8.32;;;;;;;;;;10281361;28;20045;-63
2021/09/13 12:39:19;;;;;;;12.90;7.40;;;;;;;;;;10281316;28;20436;-64
2021/09/13 12:44:20;;;;;;;8.45;7.00;;;;;;;;;;10280862;28;20095;-64
2021/09/13 12:49:19;;;;;;;9.93;6.47;;;;;;;;;;10281075;28;20511;-65
2021/09/13 12:54:26;;;;;;;10.27;6.13;;;;;;;;;;10280095;28;20060;-64
2021/09/13 12:59:26;;;;;;;8.90;6.10;;;;;;;;;;10280305;28;20426;-64
2021/09/13 13:04:38;;;;;;;11.57;6.50;;;;;;;;;;10280257;28;20076;-64
2021/09/13 13:09:36;;;;;;;11.60;6.45;;;;;;;;;;10280344;28;20059;-64
2021/09/13 13:14:36;;;;;;;11.07;7.38;;;;;;;;;;10279790;28;20049;-64
2021/09/13 13:19:35;;;;;;;11.43;6.78;;;;;;;;;;10284320;28;20045;-64
2021/09/13 13:24:33;;;;;;;12.98;6.13;;;;;;;;;;10279880;28;20084;-63
2021/09/13 13:29:31;;;;;;;11.70;10.43;;;;;;;;;;10278135;28;20037;-63
2021/09/13 13:34:33;;;;;;;12.38;6.85;;;;;;;;;;10279051;28;20422;-64
2021/09/13 13:39:31;;;;;;;14.93;7.53;;;;;;;;;;10279045;28;20045;-64
2021/09/13 13:44:30;;;;;;;10.77;7.75;;;;;;;;;;10279071;28;20052;-64
2021/09/13 13:49:28;;;;;;;11.75;6.95;;;;;;;;;;10279707;28;20076;-64
2021/09/13 13:54:28;;;;;;;12.55;6.05;;;;;;;;;;10278036;28;20056;-64
2021/09/13 13:59:26;;;;;;;11.60;6.85;;;;;;;;;;10277960;28;20083;-64
2021/09/13 14:04:24;;;;;;;10.52;7.38;;;;;;;;;;10277867;28;20081;-64
2021/09/13 14:09:23;;;;;;;19.17;7.70;;;;;;;;;;10277837;28;20045;-63
2021/09/13 14:14:25;;;;;;;10.65;6.65;;;;;;;;;;10277423;28;20041;-63
2021/09/13 14:19:23;;;;;;;10.93;8.02;;;;;;;;;;10276789;28;20083;-64
2021/09/13 14:24:22;;;;;;;15.52;6.80;;;;;;;;;;10277113;28;20080;-64
2021/09/13 14:29:20;;;;;;;15.32;8.65;;;;;;;;;;10276485;28;20076;-64
2021/09/13 14:34:20;;;;;;;11.98;7.95;;;;;;;;;;10276013;28;20431;-64
2021/09/13 14:39:18;;;;;;;9.93;7.75;;;;;;;;;;10276903;28;20267;-64
2021/09/13 14:44:17;;;;;;;10.77;7.28;;;;;;;;;;10276577;28;20073;-64
2021/09/13 14:49:16;;;;;;;13.68;8.32;;;;;;;;;;10276384;28;20472;-64
2021/09/13 14:54:15;;;;;;;18.77;8.20;;;;;;;;;;10275895;28;20053;-64
2021/09/13 14:59:16;;;;;;;11.07;6.82;;;;;;;;;;10276134;28;20053;-64
2021/09/13 15:04:14;;;;;;;11.57;6.80;;;;;;;;;;10276530;28;20313;-64
2021/09/13 15:09:13;;;;;;;14.88;6.88;;;;;;;;;;10274185;28;20041;-65
2021/09/13 15:14:12;;;;;;;12.90;7.43;;;;;;;;;;10275983;28;20040;-63
2021/09/13 15:19:14;;;;;;;12.30;7.55;;;;;;;;;;10276196;28;20402;-63
2021/09/13 15:24:12;;;;;;;7.72;6.05;;;;;;;;;;10275650;28;20084;-64
2021/09/13 15:29:12;;;;;;;8.75;6.05;;;;;;;;;;10276465;28;20056;-64
2021/09/13 15:34:10;;;;;;;10.60;6.07;;;;;;;;;;10283638;28;20072;-65
2021/09/13 15:39:09;;;;;;;11.75;6.75;;;;;;;;;;10283384;28;20049;-63
2021/09/13 15:44:07;;;;;;;9.63;6.15;;;;;;;;;;10282439;28;20092;-63
2021/09/13 15:49:07;;;;;;;8.40;5.50;;;;;;;;;;10283099;28;20056;-64
2021/09/13 15:54:05;;;;;;;11.35;7.07;;;;;;;;;;10282339;28;20061;-64
2021/09/13 15:59:05;;;;;;;18.13;8.13;;;;;;;;;;10282057;28;20072;-63
2021/09/13 16:04:04;;;;;;;15.07;7.25;;;;;;;;;;10282521;28;20088;-63
2021/09/13 16:09:03;;;;;;;16.63;7.50;;;;;;;;;;10282135;28;20509;-63
2021/09/13 16:14:02;;;;;;;13.23;7.72;;;;;;;;;;10281984;28;20041;-63
2021/09/13 16:19:00;;;;;;;21.05;6.72;;;;;;;;;;10281846;28;20072;-63
2021/09/13 16:23:58;;;;;;;11.27;7.28;;;;;;;;;;10280768;28;20092;-64
2021/09/13 16:28:58;;;;;;;20.70;9.48;;;;;;;;;;10281478;28;20072;-64
2021/09/13 16:33:57;;;;;;;10.75;6.55;;;;;;;;;;10281299;28;20049;-64
2021/09/13 16:38:55;;;;;;;17.02;8.15;;;;;;;;;;10281218;28;20391;-65
2021/09/13 16:43:53;;;;;;;17.15;8.85;;;;;;;;;;10280080;28;20092;-65
2021/09/13 16:48:53;;;;;;;13.82;8.73;;;;;;;;;;10280587;28;20064;-65
2021/09/13 16:53:51;;;;;;;12.45;9.15;;;;;;;;;;10280061;28;20083;-65
2021/09/13 16:58:50;;;;;;;13.45;8.50;;;;;;;;;;10287029;28;20064;-66
2021/09/13 17:03:48;;;;;;;13.77;7.72;;;;;;;;;;10291507;28;20514;-65
2021/09/13 17:08:48;;;;;;;11.20;6.70;;;;;;;;;;10280159;28;20059;-63
2021/09/13 17:13:47;;;;;;;19.92;6.82;;;;;;;;;;10279568;28;20064;-65
2021/09/13 17:18:45;;;;;;;14.13;7.20;;;;;;;;;;10279674;28;20041;-63
2021/09/13 17:23:43;;;;;;;15.82;6.72;;;;;;;;;;10279374;28;20084;-65
2021/09/13 17:28:43;;;;;;;17.20;8.95;;;;;;;;;;10307338;28;20045;-64
2021/09/13 17:33:41;;;;;;;22.98;10.15;;;;;;;;;;10279179;28;20499;-64
2021/09/13 17:38:40;;;;;;;10.93;8.57;;;;;;;;;;10278110;28;20041;-64
2021/09/13 17:43:38;;;;;;;15.77;8.32;;;;;;;;;;10278415;28;20434;-64
2021/09/13 17:48:38;;;;;;;10.18;7.43;;;;;;;;;;10278587;28;20045;-64
2021/09/13 17:53:36;;;;;;;13.75;6.88;;;;;;;;;;10276933;28;20057;-65
2021/09/13 17:58:35;;;;;;;11.75;6.03;;;;;;;;;;10277469;28;20045;-64
2021/09/13 18:03:33;;;;;;;13.75;6.38;;;;;;;;;;10277552;28;20076;-64
2021/09/13 18:08:34;;;;;;;16.65;6.85;;;;;;;;;;10318115;28;20072;-64
2021/09/13 18:13:33;;;;;;;9.45;5.80;;;;;;;;;;10317608;28;20048;-63
2021/09/13 18:18:31;;;;;;;13.00;5.65;;;;;;;;;;10318111;28;20048;-64
2021/09/13 18:23:30;;;;;;;11.85;5.30;;;;;;;;;;10317655;28;20083;-64
2021/09/13 18:28:30;;;;;;;13.75;5.75;;;;;;;;;;10317539;28;20482;-64
2021/09/13 18:33:28;;;;;;;10.85;5.72;;;;;;;;;;10317478;28;20453;-66
2021/09/13 18:38:26;;;;;;;6.22;5.07;;;;;;;;;;10317230;28;20691;-64
2021/09/13 18:43:26;;;;;;;10.48;5.60;;;;;;;;;;10317141;28;20076;-64
2021/09/13 18:48:26;;;;;;;8.88;5.88;;;;;;;;;;10316799;28;20055;-63
2021/09/13 18:53:24;;;;;;;8.43;6.00;;;;;;;;;;10316347;28;20170;-65
2021/09/13 18:58:23;;;;;;;13.85;5.75;;;;;;;;;;10316770;28;20490;-64
2021/09/13 19:03:21;;;;;;;14.30;5.93;;;;;;;;;;10316557;28;20076;-64
2021/09/13 19:08:22;;;;;;;10.65;5.60;;;;;;;;;;10315967;28;20048;-64
2021/09/13 19:13:20;;;;;;;14.30;7.20;;;;;;;;;;10316413;28;20417;-64
2021/09/13 19:18:19;;;;;;;15.27;5.10;;;;;;;;;;10316667;28;20048;-64
2021/09/13 19:23:20;;;;;;;8.90;4.85;;;;;;;;;;10316468;28;20637;-65
2021/09/13 19:28:19;;;;;;;7.90;4.70;;;;;;;;;;10316507;28;20044;-65
2021/09/13 19:33:18;;;;;;;9.15;5.28;;;;;;;;;;10316098;28;20056;-63
2021/09/13 19:38:16;;;;;;;11.93;6.47;;;;;;;;;;10315958;28;20090;-63
2021/09/13 19:43:15;;;;;;;12.05;4.93;;;;;;;;;;10315864;28;20473;-64
2021/09/13 19:48:14;;;;;;;8.20;5.18;;;;;;;;;;10316121;28;20052;-64
2021/09/13 19:53:13;;;;;;;9.32;5.35;;;;;;;;;;10315633;28;20049;-64
2021/09/13 19:58:11;;;;;;;12.10;5.45;;;;;;;;;;10315994;28;20087;-64
2021/09/13 20:03:10;;;;;;;8.30;5.80;;;;;;;;;;10315747;28;20037;-64
2021/09/13 20:08:10;;;;;;;16.05;5.50;;;;;;;;;;10314981;28;20052;-65
2021/09/13 20:13:08;;;;;;;9.80;6.57;;;;;;;;;;10315404;28;20067;-65
2021/09/13 20:18:07;;;;;;;12.95;6.07;;;;;;;;;;10319103;28;20049;-65
2021/09/13 20:23:06;;;;;;;15.82;6.53;;;;;;;;;;10322718;28;20048;-65
2021/09/13 20:28:06;;;;;;;11.38;5.47;;;;;;;;;;10322261;28;20123;-65
2021/09/13 20:33:04;;;;;;;12.18;5.78;;;;;;;;;;10322212;28;20083;-65
2021/09/13 20:38:03;;;;;;;9.13;5.50;;;;;;;;;;10321996;28;20076;-65
2021/09/13 20:43:01;;;;;;;14.85;5.47;;;;;;;;;;10347584;28;20044;-63
2021/09/13 20:48:01;;;;;;;10.82;5.57;;;;;;;;;;10333657;28;20069;-64
2021/09/13 20:53:00;;;;;;;13.70;6.78;;;;;;;;;;10320878;28;20048;-64
2021/09/13 20:57:59;;;;;;;13.77;6.10;;;;;;;;;;10321374;28;20056;-65
2021/09/13 21:02:58;;;;;;;11.38;5.78;;;;;;;;;;10321118;28;20522;-65
2021/09/13 21:07:59;;;;;;;11.90;6.22;;;;;;;;;;10324398;28;20087;-65
2021/09/13 21:12:57;;;;;;;8.38;5.32;;;;;;;;;;10346456;28;20064;-65
2021/09/13 21:17:56;;;;;;;10.40;5.05;;;;;;;;;;10326122;28;20044;-64
2021/09/13 21:22:55;;;;;;;14.48;5.90;;;;;;;;;;10320149;28;20060;-63
2021/09/13 21:27:57;;;;;;;14.32;6.15;;;;;;;;;;10320003;28;20498;-64
2021/09/13 21:32:55;;;;;;;11.05;6.30;;;;;;;;;;10319976;28;20493;-64
2021/09/13 21:37:54;;;;;;;9.40;5.38;;;;;;;;;;10319475;28;20053;-63
2021/09/13 21:42:53;;;;;;;8.98;5.82;;;;;;;;;;10319413;28;20040;-64
2021/09/13 21:47:52;;;;;;;10.90;5.93;;;;;;;;;;10318922;28;20060;-64
2021/09/13 21:52:51;;;;;;;10.48;5.75;;;;;;;;;;10318825;28;20044;-64
2021/09/13 21:57:49;;;;;;;11.30;5.85;;;;;;;;;;10318609;28;20064;-64
2021/09/13 22:02:48;;;;;;;14.52;5.60;;;;;;;;;;10318565;28;20040;-64
2021/09/13 22:07:48;;;;;;;9.20;5.93;;;;;;;;;;10317707;28;20064;-64
2021/09/13 22:12:46;;;;;;;10.80;5.90;;;;;;;;;;10318368;28;20502;-63
2021/09/13 22:17:45;;;;;;;10.75;6.50;;;;;;;;;;10318243;28;20076;-65
2021/09/13 22:22:43;;;;;;;11.27;6.60;;;;;;;;;;10317235;28;20049;-64
2021/09/13 22:27:43;;;;;;;18.35;6.55;;;;;;;;;;10317713;28;20037;-63
2021/09/13 22:32:41;;;;;;;16.42;6.68;;;;;;;;;;10317327;28;20051;-64
2021/09/13 22:37:40;;;;;;;9.30;6.55;;;;;;;;;;10317108;28;20083;-64
2021/09/13 22:42:38;;;;;;;10.07;5.90;;;;;;;;;;10316637;28;20053;-64
2021/09/13 22:47:38;;;;;;;8.63;5.53;;;;;;;;;;10316894;28;20075;-65
2021/09/13 22:52:36;;;;;;;10.65;6.80;;;;;;;;;;10316827;28;20084;-64
2021/09/13 22:57:34;;;;;;;14.35;6.75;;;;;;;;;;10316967;28;20040;-64
2021/09/13 23:02:33;;;;;;;8.50;6.05;;;;;;;;;;10316694;28;20042;-64
2021/09/13 23:07:33;;;;;;;13.07;6.30;;;;;;;;;;10316422;28;20072;-65
2021/09/13 23:12:32;;;;;;;9.65;5.75;;;;;;;;;;10316789;28;20052;-65
2021/09/13 23:17:32;;;;;;;13.38;6.35;;;;;;;;;;10316390;28;20060;-65
2021/09/13 23:22:30;;;;;;;13.90;7.18;;;;;;;;;;10316602;28;20059;-65
2021/09/13 23:27:31;;;;;;;11.07;7.15;;;;;;;;;;10316641;28;20088;-65
2021/09/13 23:32:29;;;;;;;13.38;7.35;;;;;;;;;;10316036;28;20037;-65
2021/09/13 23:37:29;;;;;;;8.85;6.35;;;;;;;;;;10316085;28;20051;-65
2021/09/13 23:42:27;;;;;;;14.65;6.80;;;;;;;;;;10315857;28;20044;-65
2021/09/13 23:47:27;;;;;;;11.48;7.45;;;;;;;;;;10315430;28;20087;-64
2021/09/13 23:52:26;;;;;;;7.43;6.10;;;;;;;;;;10318064;28;20071;-63
2021/09/13 23:57:27;;;;;;;8.13;5.85;;;;;;;;;;10323404;28;20414;-63
